This is the latest recevied weather packets stored in our database for station/object W4MJZ-1. If no packets are shown the sender has not sent any weather packets the latest 1 day(s).
| Time | Temp. | Humidity | Pressure | Rain* | Wind** | Luminosity | Snow |
|---|---|---|---|---|---|---|---|
| 1778051541 | 12.78° C | 59% | 1022.2 hPa | 0 mm | - | - | - |
| 1778051487 | 12.22° C | 63% | 1021.8 hPa | 0 mm | - | - | - |
| 1778051133 | 12.22° C | 61% | 1022.2 hPa | 0 mm | - | - | - |
| 1778050939 | 12.22° C | 61% | 1022.2 hPa | 0 mm | - | - | - |
| 1778050759 | 12.78° C | 59% | 1022.2 hPa | 0 mm | - | - | - |
| 1778050640 | 13.33° C | 57% | 1022.2 hPa | 0 mm | - | - | - |
| 1778050638 | 12.78° C | 59% | 1022.2 hPa | 0 mm | - | - | - |
| 1778050039 | 13.33° C | 57% | 1021.8 hPa | 0 mm | - | - | - |
| 1778049978 | 13.33° C | 56% | 1022.2 hPa | 0 mm | - | - | - |
| 1778049683 | 13.33° C | 56% | 1022.2 hPa | 0 mm | - | - | - |
| 1778049439 | 13.33° C | 56% | 1022.2 hPa | 0 mm | - | - | - |
| 1778049280 | 13.89° C | 55% | 1021.8 hPa | 0 mm | - | - | - |
| 1778049017 | 13.89° C | 55% | 1021.8 hPa | 0 mm | - | - | - |
| 1778048795 | 13.89° C | 54% | 1022.2 hPa | 0 mm | - | - | - |
| 1778048539 | 13.89° C | 54% | 1022.2 hPa | 0 mm | - | - | - |
| 1778048493 | 14.44° C | 54% | 1021.8 hPa | 0 mm | - | - | - |
| 1778048239 | 14.44° C | 54% | 1021.8 hPa | 0 mm | - | - | - |
| 1778048128 | 14.44° C | 53% | 1021.8 hPa | 0 mm | - | - | - |
| 1778047639 | 14.44° C | 53% | 1021.8 hPa | 0 mm | - | - | - |
| 1778047339 | 14.44° C | 53% | 1021.8 hPa | 0 mm | - | - | - |
| 1778047113 | 14.44° C | 54% | 1021.8 hPa | 0 mm | - | - | - |
| 1778047039 | 14.44° C | 54% | 1021.8 hPa | 0 mm | - | - | - |
| 1778046614 | 14.44° C | 54% | 1021.8 hPa | 0 mm | - | - | - |
| 1778046439 | 14.44° C | 54% | 1021.8 hPa | 0 mm | - | - | - |
| 1778046264 | 14.44° C | 53% | 1021.8 hPa | 0 mm | - | - | - |
* Rain latest hour (hover to see other rain measurements)
** Current wind speed in m/s (hover to see current wind gust speed)